createdAt,value
2023-01-09T00:01:12.281Z,2.40
2023-01-09T00:03:39.725Z,2.77
2023-01-09T00:06:08.826Z,2.00
2023-01-09T00:08:36.540Z,5.93
2023-01-09T00:11:03.976Z,2.33
2023-01-09T00:13:31.427Z,1.90
2023-01-09T00:15:59.688Z,1.50
2023-01-09T00:18:27.433Z,2.57
2023-01-09T00:20:54.900Z,1.37
2023-01-09T00:23:23.794Z,1.40
2023-01-09T00:25:51.188Z,1.80
2023-01-09T00:28:18.580Z,1.10
2023-01-09T00:30:46.095Z,1.00
2023-01-09T00:33:13.852Z,3.50
2023-01-09T00:35:41.312Z,1.20
2023-01-09T00:38:08.779Z,0.80
2023-01-09T00:40:37.584Z,0.97
2023-01-09T00:43:05.037Z,1.57
2023-01-09T00:45:32.491Z,0.97
2023-01-09T00:48:03.417Z,0.70
2023-01-09T00:50:32.175Z,0.67
2023-01-09T00:53:01.917Z,0.77
2023-01-09T00:55:29.328Z,0.83
2023-01-09T00:57:58.115Z,0.53
2023-01-09T01:00:25.580Z,0.77
2023-01-09T01:02:53.310Z,0.50
2023-01-09T01:05:38.490Z,0.70
2023-01-09T01:08:10.870Z,0.50
2023-01-09T01:10:38.277Z,0.50
2023-01-09T01:13:07.274Z,0.70
2023-01-09T01:15:34.709Z,1.43
2023-01-09T01:18:02.154Z,0.60
2023-01-09T01:20:30.129Z,0.60
2023-01-09T01:22:57.659Z,0.60
2023-01-09T01:25:25.134Z,0.70
2023-01-09T01:27:52.839Z,2.83
2023-01-09T01:30:21.866Z,0.60
2023-01-09T01:32:49.303Z,0.60
2023-01-09T01:35:16.831Z,0.60
2023-01-09T01:37:44.269Z,1.33
2023-01-09T01:40:12.560Z,0.70
2023-01-09T01:42:46.306Z,0.70
2023-01-09T01:45:14.882Z,0.67
2023-01-09T01:47:47.246Z,0.60
2023-01-09T01:50:18.293Z,0.50
2023-01-09T01:52:46.645Z,0.60
2023-01-09T01:55:14.278Z,0.67
2023-01-09T01:57:43.876Z,0.90
2023-01-09T02:00:12.395Z,0.60
2023-01-09T02:02:39.908Z,0.50
2023-01-09T02:05:09.266Z,0.60
2023-01-09T02:07:36.635Z,0.60
2023-01-09T02:10:04.957Z,1.03
2023-01-09T02:12:32.394Z,1.20
2023-01-09T02:15:01.107Z,1.53
2023-01-09T02:17:37.863Z,1.00
2023-01-09T02:20:32.786Z,3.20
2023-01-09T02:23:04.219Z,1.20
2023-01-09T02:25:41.546Z,1.27
2023-01-09T02:28:20.374Z,1.00
2023-01-09T02:30:50.020Z,0.80
2023-01-09T02:33:35.320Z,1.00
2023-01-09T02:36:10.674Z,0.73
2023-01-09T02:38:42.350Z,2.13
2023-01-09T02:41:14.072Z,1.70
2023-01-09T02:43:41.703Z,1.03
2023-01-09T02:46:19.252Z,0.90
2023-01-09T02:48:47.100Z,0.80
2023-01-09T02:51:21.192Z,0.80
2023-01-09T02:54:00.664Z,1.17
2023-01-09T02:56:34.682Z,1.13
2023-01-09T02:59:11.661Z,0.70
2023-01-09T03:01:46.267Z,1.00
2023-01-09T03:04:17.367Z,0.70
2023-01-09T03:06:48.718Z,0.70
2023-01-09T03:09:20.088Z,0.67
2023-01-09T03:11:48.893Z,1.00
2023-01-09T03:14:18.426Z,0.70
2023-01-09T03:16:48.899Z,0.70
2023-01-09T03:19:17.726Z,0.60
2023-01-09T03:21:45.725Z,2.10
2023-01-09T03:24:13.150Z,0.90
2023-01-09T03:26:41.133Z,4.03
2023-01-09T03:29:08.892Z,0.70
2023-01-09T03:31:36.497Z,0.70
2023-01-09T03:34:05.354Z,0.60
2023-01-09T03:36:32.798Z,0.80
2023-01-09T03:39:00.250Z,0.90
2023-01-09T03:41:27.794Z,1.00
2023-01-09T03:43:55.176Z,1.80
2023-01-09T03:46:22.702Z,0.87
2023-01-09T03:48:50.102Z,0.87
2023-01-09T03:51:18.903Z,2.00
2023-01-09T03:53:46.383Z,0.90
2023-01-09T03:56:13.844Z,1.80
2023-01-09T03:58:41.316Z,1.17
2023-01-09T04:01:12.617Z,1.60
2023-01-09T04:03:40.655Z,1.83
2023-01-09T04:06:08.385Z,1.60
2023-01-09T04:08:37.144Z,1.00
2023-01-09T04:11:04.591Z,1.00
2023-01-09T04:13:32.063Z,0.90
2023-01-09T04:15:59.596Z,0.70
2023-01-09T04:18:26.978Z,0.70
2023-01-09T04:20:55.443Z,1.10
2023-01-09T04:23:23.166Z,1.03
2023-01-09T04:25:51.928Z,0.87
2023-01-09T04:28:19.583Z,2.87
2023-01-09T04:30:46.955Z,1.20
2023-01-09T04:33:15.432Z,1.70
2023-01-09T04:35:42.865Z,5.57
2023-01-09T04:38:10.378Z,1.60
2023-01-09T04:40:37.916Z,1.67
2023-01-09T04:43:06.680Z,1.37
2023-01-09T04:45:34.116Z,1.10
2023-01-09T04:48:01.588Z,2.10
2023-01-09T04:50:31.018Z,0.83
2023-01-09T04:52:59.182Z,0.60
2023-01-09T04:55:26.593Z,0.70
2023-01-09T04:57:54.002Z,1.03
2023-01-09T05:00:22.955Z,0.90
2023-01-09T05:02:50.376Z,1.00
2023-01-09T05:05:18.010Z,0.70
2023-01-09T05:07:45.421Z,1.00
2023-01-09T05:10:13.042Z,0.93
2023-01-09T05:12:40.571Z,3.63
2023-01-09T05:15:09.192Z,1.87
2023-01-09T05:17:37.948Z,2.80
2023-01-09T05:20:06.363Z,1.00
2023-01-09T05:22:33.797Z,0.80
2023-01-09T05:25:01.278Z,0.90
2023-01-09T05:27:30.276Z,0.80
2023-01-09T05:29:57.698Z,0.60
2023-01-09T05:32:25.180Z,1.67
2023-01-09T05:34:53.894Z,0.97
2023-01-09T05:37:21.336Z,2.33
2023-01-09T05:39:48.738Z,0.80
2023-01-09T05:42:16.250Z,2.07
2023-01-09T05:44:43.648Z,1.27
2023-01-09T05:47:11.119Z,3.00
2023-01-09T05:49:38.691Z,0.93
2023-01-09T05:52:07.966Z,1.33
2023-01-09T05:54:35.447Z,0.93
2023-01-09T05:57:02.874Z,2.00
2023-01-09T05:59:30.363Z,1.90
2023-01-09T06:01:57.890Z,2.93
2023-01-09T06:04:25.730Z,3.30
2023-01-09T06:06:53.187Z,4.77
2023-01-09T06:09:22.004Z,2.40
2023-01-09T06:11:49.566Z,1.90
2023-01-09T06:14:17.020Z,3.90
2023-01-09T06:16:44.676Z,5.30
2023-01-09T06:19:12.203Z,2.60
2023-01-09T06:21:39.656Z,4.37
2023-01-09T06:24:07.599Z,3.67
2023-01-09T06:26:36.417Z,2.00
2023-01-09T06:29:03.904Z,1.00
2023-01-09T06:31:31.392Z,1.57
2023-01-09T06:33:58.908Z,3.33
2023-01-09T06:36:26.412Z,2.03
2023-01-09T06:38:53.925Z,3.07
2023-01-09T06:41:21.439Z,1.07
2023-01-09T06:43:50.196Z,1.03
2023-01-09T06:46:17.852Z,1.03
2023-01-09T06:48:45.405Z,2.30
2023-01-09T06:51:12.843Z,2.30
2023-01-09T06:53:40.264Z,2.77
2023-01-09T06:56:07.901Z,2.83
2023-01-09T06:58:35.289Z,4.30
2023-01-09T07:01:04.240Z,1.20
2023-01-09T07:03:33.683Z,1.00
2023-01-09T07:06:01.345Z,2.10
2023-01-09T07:08:28.767Z,2.40
2023-01-09T07:10:56.274Z,1.90
2023-01-09T07:13:23.877Z,1.43
2023-01-09T07:15:53.728Z,1.13
2023-01-09T07:18:22.647Z,2.00
2023-01-09T07:20:50.326Z,3.07
2023-01-09T07:23:18.828Z,2.17
2023-01-09T07:25:46.220Z,1.80
2023-01-09T07:28:13.644Z,3.90
2023-01-09T07:30:41.105Z,2.30
2023-01-09T07:33:08.606Z,1.73
2023-01-09T07:35:37.975Z,1.10
2023-01-09T07:38:05.440Z,1.33
2023-01-09T07:40:33.060Z,2.23
2023-01-09T07:43:00.591Z,1.53
2023-01-09T07:45:28.059Z,1.30
2023-01-09T07:47:55.520Z,1.20
2023-01-09T07:50:22.997Z,2.93
2023-01-09T07:52:51.778Z,1.47
2023-01-09T07:55:19.187Z,0.73
2023-01-09T07:57:48.981Z,0.87
2023-01-09T08:00:17.152Z,3.03
2023-01-09T08:02:44.649Z,0.83
2023-01-09T08:05:15.008Z,1.33
2023-01-09T08:07:42.664Z,0.77
2023-01-09T08:10:12.077Z,4.13
2023-01-09T08:12:43.008Z,1.00
2023-01-09T08:15:10.887Z,1.17
2023-01-09T08:17:38.304Z,2.03
2023-01-09T08:20:06.145Z,2.23
2023-01-09T08:22:33.675Z,2.37
2023-01-09T08:25:01.104Z,1.00
2023-01-09T08:27:29.888Z,3.73
2023-01-09T08:29:57.276Z,1.23
2023-01-09T08:32:24.711Z,1.37
2023-01-09T08:34:52.550Z,0.80
2023-01-09T08:37:19.968Z,1.73
2023-01-09T08:39:48.644Z,0.60
2023-01-09T08:42:33.955Z,0.90
2023-01-09T08:45:20.256Z,0.60
2023-01-09T08:47:47.714Z,0.70
2023-01-09T08:50:15.459Z,0.80
2023-01-09T08:52:42.972Z,0.70
2023-01-09T08:55:10.845Z,0.70
2023-01-09T08:57:38.306Z,1.60
2023-01-09T09:00:07.873Z,4.63
2023-01-09T09:02:35.337Z,1.17
2023-01-09T09:05:02.792Z,1.93
2023-01-09T09:07:30.324Z,2.10
2023-01-09T09:09:57.831Z,1.13
2023-01-09T09:12:25.289Z,0.70
2023-01-09T09:15:09.955Z,1.20
2023-01-09T09:17:40.213Z,1.07
2023-01-09T09:20:08.338Z,1.00
2023-01-09T09:22:35.734Z,0.60
2023-01-09T09:25:04.700Z,0.60
2023-01-09T09:27:32.274Z,4.67
2023-01-09T09:29:59.777Z,0.60
2023-01-09T09:32:27.180Z,1.57
2023-01-09T09:34:55.948Z,1.73
2023-01-09T09:37:23.328Z,1.17
2023-01-09T09:39:50.920Z,1.30
2023-01-09T09:42:42.746Z,1.37
2023-01-09T09:45:19.023Z,1.27
2023-01-09T09:47:53.512Z,1.27
2023-01-09T09:50:28.543Z,0.80
2023-01-09T09:53:00.387Z,1.00
2023-01-09T09:55:30.229Z,0.60
2023-01-09T09:57:59.438Z,0.57
2023-01-09T10:00:26.959Z,0.80
2023-01-09T10:02:56.200Z,0.93
2023-01-09T10:05:27.667Z,1.30
2023-01-09T10:07:55.225Z,0.80
2023-01-09T10:10:28.397Z,0.60
2023-01-09T10:12:56.687Z,0.83
2023-01-09T10:15:30.205Z,0.73
2023-01-09T10:18:06.041Z,1.80
2023-01-09T10:20:46.874Z,1.00
2023-01-09T10:23:22.136Z,0.80
2023-01-09T10:25:52.002Z,1.00
2023-01-09T10:28:30.329Z,0.93
2023-01-09T10:31:00.173Z,0.90
2023-01-09T10:33:33.736Z,1.33
2023-01-09T10:36:12.267Z,1.57
2023-01-09T10:38:41.322Z,0.70
2023-01-09T10:41:11.430Z,2.27
2023-01-09T10:43:43.038Z,1.00
2023-01-09T10:46:12.916Z,0.80
2023-01-09T10:48:43.553Z,1.40
2023-01-09T10:51:16.556Z,0.97
2023-01-09T10:53:45.915Z,0.97
2023-01-09T10:56:18.914Z,1.67
2023-01-09T10:58:46.489Z,0.90
2023-01-09T11:01:14.042Z,0.70
2023-01-09T11:03:41.525Z,1.17
2023-01-09T11:06:16.549Z,0.90
2023-01-09T11:08:46.202Z,0.80
2023-01-09T11:11:14.581Z,1.90
2023-01-09T11:13:47.117Z,1.87
2023-01-09T11:16:17.836Z,2.03
2023-01-09T11:18:49.660Z,0.63
2023-01-09T11:21:29.025Z,0.80
2023-01-09T11:23:57.880Z,0.77
2023-01-09T11:26:26.627Z,0.67
2023-01-09T11:29:07.929Z,0.80
2023-01-09T11:31:35.635Z,0.70
2023-01-09T11:34:03.652Z,0.80
2023-01-09T11:36:31.494Z,0.70
2023-01-09T11:39:02.684Z,0.60
2023-01-09T11:41:31.837Z,1.00
2023-01-09T11:44:00.104Z,0.70
2023-01-09T11:46:32.061Z,2.30
2023-01-09T11:49:00.718Z,0.70
2023-01-09T11:51:28.921Z,2.63
2023-01-09T11:54:11.275Z,1.77
2023-01-09T11:56:40.377Z,0.60
2023-01-09T11:59:11.162Z,1.50
2023-01-09T12:02:02.691Z,0.60
2023-01-09T12:04:34.963Z,0.80
2023-01-09T12:07:16.747Z,4.10
2023-01-09T12:09:47.064Z,0.53
2023-01-09T12:12:20.947Z,0.60
2023-01-09T12:14:52.362Z,0.60
2023-01-09T12:17:41.137Z,0.83
2023-01-09T12:20:21.969Z,1.70
2023-01-09T12:22:57.244Z,3.93
2023-01-09T12:25:29.237Z,0.60
2023-01-09T12:28:06.749Z,0.50
2023-01-09T12:30:54.942Z,1.43
2023-01-09T12:33:27.927Z,0.90
2023-01-09T12:35:58.725Z,0.80
2023-01-09T12:38:32.663Z,0.50
2023-01-09T12:41:11.702Z,0.70
2023-01-09T12:43:44.879Z,0.60
2023-01-09T12:46:16.620Z,0.90
2023-01-09T12:49:02.032Z,0.90
2023-01-09T12:51:32.613Z,0.60
2023-01-09T12:54:02.788Z,0.60
2023-01-09T12:56:32.578Z,3.43
2023-01-09T12:59:02.811Z,1.60
2023-01-09T13:01:33.196Z,1.70
2023-01-09T13:04:06.605Z,0.77
2023-01-09T13:06:35.630Z,1.00
2023-01-09T13:09:07.720Z,1.33
2023-01-09T13:11:36.511Z,1.47
2023-01-09T13:14:08.173Z,0.50
2023-01-09T13:16:41.504Z,0.60
2023-01-09T13:19:13.580Z,0.60
2023-01-09T13:21:41.681Z,0.80
2023-01-09T13:24:14.748Z,2.77
2023-01-09T13:26:43.967Z,1.67
2023-01-09T13:29:16.243Z,0.80
2023-01-09T13:31:59.008Z,0.73
2023-01-09T13:34:28.197Z,1.23
2023-01-09T13:36:56.370Z,0.87
2023-01-09T13:39:25.244Z,1.63
2023-01-09T13:42:11.615Z,6.63
2023-01-09T13:44:40.720Z,1.33
2023-01-09T13:47:17.141Z,2.00
2023-01-09T13:50:21.309Z,1.93
2023-01-09T13:52:48.818Z,1.67
2023-01-09T13:55:35.619Z,1.77
2023-01-09T13:58:22.493Z,1.30
2023-01-09T14:01:07.913Z,1.37
2023-01-09T14:03:37.763Z,1.30
2023-01-09T14:06:11.931Z,1.50
2023-01-09T14:08:41.741Z,1.60
2023-01-09T14:11:09.554Z,1.67
2023-01-09T14:13:40.512Z,1.57
2023-01-09T14:16:09.915Z,4.60
2023-01-09T14:18:40.199Z,2.87
2023-01-09T14:21:08.651Z,1.93
2023-01-09T14:23:51.417Z,5.13
2023-01-09T14:26:22.214Z,1.83
2023-01-09T14:28:49.659Z,3.23
2023-01-09T14:31:30.175Z,3.60
2023-01-09T14:34:23.989Z,2.20
2023-01-09T14:37:00.712Z,2.20
2023-01-09T14:39:29.866Z,2.50
2023-01-09T14:42:00.660Z,2.10
2023-01-09T14:44:29.740Z,2.37
2023-01-09T14:47:00.292Z,2.70
2023-01-09T14:49:33.780Z,7.50
2023-01-09T14:52:05.015Z,3.10
2023-01-09T14:54:34.433Z,2.50
2023-01-09T14:57:02.425Z,2.63
2023-01-09T14:59:30.494Z,5.40
2023-01-09T15:01:59.744Z,1.97
2023-01-09T15:04:31.702Z,1.80
2023-01-09T15:06:59.843Z,3.40
2023-01-09T15:09:29.714Z,4.70
2023-01-09T15:12:01.761Z,7.93
2023-01-09T15:14:33.638Z,3.60
2023-01-09T15:17:01.436Z,2.67
2023-01-09T15:19:29.333Z,3.73
2023-01-09T15:21:57.556Z,4.23
2023-01-09T15:24:28.690Z,1.70
2023-01-09T15:26:59.170Z,3.60
2023-01-09T15:29:26.906Z,3.13
2023-01-09T15:31:56.722Z,2.60
2023-01-09T15:34:25.322Z,3.50
2023-01-09T15:36:52.996Z,3.03
2023-01-09T15:39:23.329Z,3.17
2023-01-09T15:42:08.211Z,2.40
2023-01-09T15:44:38.626Z,4.70
2023-01-09T15:47:07.527Z,1.60
2023-01-09T15:49:36.023Z,1.50
2023-01-09T15:52:04.525Z,4.73
2023-01-09T15:54:33.344Z,2.53
2023-01-09T15:57:19.274Z,1.60
2023-01-09T15:59:48.171Z,2.37
2023-01-09T16:02:33.766Z,2.80
2023-01-09T16:05:05.948Z,5.10
2023-01-09T16:07:34.320Z,5.87
2023-01-09T16:10:01.819Z,2.30
2023-01-09T16:12:29.819Z,3.27
2023-01-09T16:15:00.487Z,2.40
2023-01-09T16:17:31.129Z,2.07
2023-01-09T16:19:59.440Z,2.20
2023-01-09T16:22:28.216Z,4.67
2023-01-09T16:24:57.455Z,2.27
2023-01-09T16:27:26.168Z,2.00
2023-01-09T16:29:57.865Z,5.30
2023-01-09T16:32:29.476Z,1.87
2023-01-09T16:34:57.731Z,2.60
2023-01-09T16:37:25.642Z,1.80
2023-01-09T16:40:11.519Z,2.60
2023-01-09T16:42:56.641Z,1.70
2023-01-09T16:45:25.894Z,4.17
2023-01-09T16:47:54.617Z,5.50
2023-01-09T16:50:23.891Z,3.80
2023-01-09T16:52:51.330Z,2.63
2023-01-09T16:55:18.922Z,2.60
2023-01-09T16:57:46.473Z,5.67
2023-01-09T17:00:15.794Z,2.53
2023-01-09T17:02:43.327Z,2.60
2023-01-09T17:05:12.255Z,4.93
2023-01-09T17:07:39.693Z,6.13
2023-01-09T17:10:07.796Z,3.40
2023-01-09T17:12:35.267Z,2.90
2023-01-09T17:15:02.665Z,1.80
2023-01-09T17:17:30.065Z,1.47
2023-01-09T17:19:57.457Z,2.40
2023-01-09T17:22:26.337Z,1.77
2023-01-09T17:25:11.163Z,1.53
2023-01-09T17:27:56.583Z,2.60
2023-01-09T17:30:24.086Z,1.67
2023-01-09T17:32:51.492Z,3.00
2023-01-09T17:35:18.925Z,3.03
2023-01-09T17:37:47.679Z,3.60
2023-01-09T17:40:18.610Z,2.73
2023-01-09T17:42:45.993Z,2.87
2023-01-09T17:45:13.529Z,3.33
2023-01-09T17:47:41.170Z,6.03
2023-01-09T17:50:11.620Z,4.60
2023-01-09T17:52:39.063Z,5.00
2023-01-09T17:55:08.936Z,4.10
2023-01-09T17:57:36.379Z,5.20
2023-01-09T18:00:06.049Z,3.17
2023-01-09T18:02:33.615Z,4.03
2023-01-09T18:05:01.103Z,4.33
2023-01-09T18:07:28.577Z,4.50
2023-01-09T18:09:55.961Z,4.50
2023-01-09T18:12:24.785Z,4.53
2023-01-09T18:14:53.817Z,2.20
2023-01-09T18:17:21.422Z,5.83
2023-01-09T18:19:50.087Z,5.50
2023-01-09T18:22:17.564Z,4.33
2023-01-09T18:24:45.154Z,3.20
2023-01-09T18:27:12.593Z,2.03
2023-01-09T18:29:41.374Z,6.87
2023-01-09T18:32:08.921Z,2.87
2023-01-09T18:34:36.394Z,4.83
2023-01-09T18:37:03.885Z,2.50
2023-01-09T18:39:31.424Z,5.10
2023-01-09T18:41:58.925Z,3.20
2023-01-09T18:44:26.367Z,2.57
2023-01-09T18:46:55.162Z,4.63
2023-01-09T18:49:22.625Z,2.63
2023-01-09T18:51:50.048Z,2.07
2023-01-09T18:54:17.462Z,2.07
2023-01-09T18:56:44.950Z,4.60
2023-01-09T18:59:12.746Z,7.80
2023-01-09T19:01:40.279Z,6.43
2023-01-09T19:04:09.075Z,5.67
2023-01-09T19:06:36.785Z,5.00
2023-01-09T19:09:05.321Z,4.70
2023-01-09T19:11:32.815Z,3.53
2023-01-09T19:14:00.403Z,6.03
2023-01-09T19:16:27.973Z,4.40
2023-01-09T19:18:55.482Z,4.03
2023-01-09T19:21:26.713Z,3.50
2023-01-09T19:23:54.745Z,9.60
2023-01-09T19:26:23.933Z,5.83
2023-01-09T19:28:51.897Z,4.20
2023-01-09T19:31:19.984Z,6.50
2023-01-09T19:33:47.569Z,3.77
2023-01-09T19:36:15.066Z,4.20
2023-01-09T19:38:43.910Z,5.17
2023-01-09T19:41:14.089Z,5.60
2023-01-09T19:43:41.536Z,12.93
2023-01-09T19:46:09.522Z,5.53
2023-01-09T19:48:37.613Z,5.57
2023-01-09T19:51:06.027Z,4.80
2023-01-09T19:53:34.201Z,3.33
2023-01-09T19:56:10.382Z,4.30
2023-01-09T19:58:38.149Z,9.07
2023-01-09T20:01:09.938Z,6.30
2023-01-09T20:03:38.098Z,7.63
2023-01-09T20:06:06.305Z,6.77
2023-01-09T20:08:33.709Z,4.80
2023-01-09T20:11:06.507Z,4.10
2023-01-09T20:13:35.435Z,5.67
2023-01-09T20:16:03.681Z,4.37
2023-01-09T20:18:31.617Z,4.37
2023-01-09T20:20:59.195Z,6.10
2023-01-09T20:23:27.913Z,3.60
2023-01-09T20:25:55.819Z,6.20
2023-01-09T20:28:23.555Z,4.47
2023-01-09T20:30:52.751Z,4.13
2023-01-09T20:33:20.415Z,5.13
2023-01-09T20:35:48.386Z,4.83
2023-01-09T20:38:15.919Z,6.60
2023-01-09T20:40:43.807Z,6.20
2023-01-09T20:43:11.997Z,5.23
2023-01-09T20:45:39.967Z,4.70
2023-01-09T20:48:10.998Z,6.63
2023-01-09T20:50:38.798Z,4.73
2023-01-09T20:53:07.905Z,3.57
2023-01-09T20:55:35.407Z,6.60
2023-01-09T20:58:02.867Z,4.87
2023-01-09T21:00:32.080Z,3.90
2023-01-09T21:02:59.839Z,3.37
2023-01-09T21:05:28.619Z,6.40
2023-01-09T21:07:56.098Z,3.30
2023-01-09T21:10:23.724Z,3.63
2023-01-09T21:12:51.138Z,5.80
2023-01-09T21:15:19.793Z,4.20
2023-01-09T21:17:47.414Z,3.70
2023-01-09T21:20:15.768Z,4.60
2023-01-09T21:22:44.655Z,5.00
2023-01-09T21:25:12.087Z,4.60
2023-01-09T21:27:40.690Z,3.40
2023-01-09T21:30:10.077Z,6.60
2023-01-09T21:32:37.466Z,3.80
2023-01-09T21:35:05.855Z,5.20
2023-01-09T21:37:34.476Z,3.47
2023-01-09T21:40:03.405Z,5.20
2023-01-09T21:42:48.309Z,3.60
2023-01-09T21:45:33.691Z,6.00
2023-01-09T21:48:03.194Z,2.80
2023-01-09T21:50:30.664Z,7.77
2023-01-09T21:52:58.103Z,2.90
2023-01-09T21:55:26.864Z,2.60
2023-01-09T21:57:54.843Z,3.13
2023-01-09T22:00:22.442Z,6.40
2023-01-09T22:02:49.887Z,3.10
2023-01-09T22:05:17.358Z,2.13
2023-01-09T22:07:44.841Z,2.20
2023-01-09T22:10:12.589Z,1.63
2023-01-09T22:13:01.551Z,4.13
2023-01-09T22:15:28.945Z,1.47
2023-01-09T22:17:56.429Z,3.73
2023-01-09T22:20:23.868Z,2.13
2023-01-09T22:22:51.378Z,7.13
2023-01-09T22:25:19.593Z,1.80
2023-01-09T22:27:49.265Z,5.67
2023-01-09T22:30:16.989Z,6.93
2023-01-09T22:32:44.551Z,2.53
2023-01-09T22:35:12.008Z,3.80
2023-01-09T22:37:39.491Z,2.80
2023-01-09T22:40:07.403Z,3.07
2023-01-09T22:42:34.777Z,5.27
2023-01-09T22:45:03.494Z,2.90
2023-01-09T22:47:30.991Z,2.67
2023-01-09T22:49:58.648Z,3.23
2023-01-09T22:52:28.227Z,5.30
2023-01-09T22:54:55.640Z,2.83
2023-01-09T22:57:23.250Z,3.60
2023-01-09T22:59:50.684Z,3.60
2023-01-09T23:02:19.638Z,5.23
2023-01-09T23:04:47.167Z,4.17
2023-01-09T23:07:14.668Z,5.80
2023-01-09T23:09:42.137Z,4.10
2023-01-09T23:12:09.637Z,5.10
2023-01-09T23:14:37.912Z,5.00
2023-01-09T23:17:05.696Z,4.70
2023-01-09T23:19:34.750Z,7.83
2023-01-09T23:22:02.573Z,6.50
2023-01-09T23:24:30.544Z,8.53
2023-01-09T23:26:58.191Z,11.23
2023-01-09T23:29:25.882Z,7.50
2023-01-09T23:31:53.987Z,5.83
2023-01-09T23:34:24.084Z,3.20
2023-01-09T23:36:53.582Z,5.63
2023-01-09T23:39:21.062Z,6.40
2023-01-09T23:42:06.357Z,5.10
2023-01-09T23:44:36.180Z,4.83
2023-01-09T23:47:03.630Z,9.77
2023-01-09T23:49:31.055Z,6.50
2023-01-09T23:52:01.623Z,4.87
2023-01-09T23:54:29.060Z,9.47
2023-01-09T23:56:56.635Z,4.93
2023-01-09T23:59:24.238Z,7.53
